• Join FlightAware (Why Join?)
  • Login
  • US Flag 
03:26AM EDT


 

Airport Tracker/Info


-or-


 

Live Flight TrackerFlight Track Log ✈ JBU1329 ✈ 03-Jun-2013 ✈ KBOS - KBWI

Flight Track Log - Related Links

Times and Time Zones

All times are in EDT time to prevent confusion due to time zone crossing. See the JBU1329 flight status page for this flight to view local times or setup timezone preferences in your user account.

Time Position Orientation Groundspeed Altitude Reporting Facility
EDT Latitude Longitude Course Direction KTS MPH feet Rate Location/Type
09:14AM 42.3500 -71.0167 240° Southwest 153 176 700  Level KA90
09:16AM 42.3888 -70.7388 144° Southeast  Level FlightAware Approximate
09:16AM 42.3150 -70.8986 112° Southeast 178 205 3,900  Level Boston Center
09:17AM 42.3248 -70.7216 172° South  Level FlightAware Approximate
09:17AM 42.3278 -70.7692 82° East 241 277 7,300  Level Boston Center
09:18AM 42.2726 -70.7578 228° Southwest  Level FlightAware Approximate
09:18AM 42.2644 -70.7231 152° Southeast 223 257 10,300  Level Boston Center
09:19AM 42.2297 -70.8252 240° Southwest  Level FlightAware Approximate
09:19AM 42.1942 -70.7531 198° South 207 238 12,700  Level Boston Center
09:20AM 42.1725 -70.8489 253° West 209 241 14,100 2,040 Climbing Boston Center
09:21AM 42.1472 -70.9811 256° West 305 351 16,800 2,340 Climbing Boston Center
09:22AM 42.1131 -71.0856 246° West 330 380 18,900 2,040 Climbing Boston Center
09:23AM 42.0731 -71.2264 249° West 351 404 20,900 1,920 Climbing Boston Center
09:24AM 42.0306 -71.3528 246° West 364 419 22,800 1,800 Climbing Boston Center
09:25AM 41.9900 -71.4792 247° West 370 426 24,500 1,620 Climbing Boston Center
09:26AM 41.9492 -71.5917 244° Southwest 381 438 26,100 1,500 Climbing Boston Center
09:27AM 41.9064 -71.7261 247° West 386 444 27,500 1,260 Climbing Boston Center
09:28AM 41.8531 -71.8883 246° West 391 450 28,900 1,260 Climbing Boston Center
09:29AM 41.8056 -72.0250 245° Southwest 396 456 30,300 1,320 Climbing Boston Center
09:31AM 41.7561 -72.1149 246° West  Level FlightAware Approximate
09:31AM 41.7147 -72.3067 246° West 396 456 33,000  Level Boston Center
09:32AM 41.6708 -72.4372 246° West 396 456 34,800 1,440 Climbing Boston Center
09:33AM 41.6292 -72.5567 245° Southwest 386 444 36,000 600 Climbing Boston Center
09:34AM 41.5997 -72.6872 253° West 373 429 36,000  Level Boston Center
09:35AM 41.5808 -72.8231 260° West 373 429 36,000  Level Boston Center
09:36AM 41.5572 -72.9617 257° West 378 435 36,000  Level Boston Center
09:37AM 41.5086 -73.0831 242° Southwest 373 429 36,000 -60 Level Boston Center
09:38AM 41.4558 -73.2017 239° Southwest 373 429 35,900 -540 Descending Boston Center
09:40AM 41.3633 -73.4056 239° Southwest 386 444 34,600 -720 Descending New York Center
09:41AM 41.3108 -73.5222 239° Southwest 394 453 34,000 -300 Descending New York Center
09:42AM 41.2453 -73.6436 234° Southwest 403 464 34,000  Level New York Center
09:43AM 41.1781 -73.7594 232° Southwest 409 471 34,000  Level New York Center
09:44AM 41.1083 -73.8775 232° Southwest 414 476 34,000  Level New York Center
09:45AM 41.0406 -73.9953 233° Southwest 409 471 34,000  Level New York Center
09:46AM 40.9728 -74.1075 231° Southwest 404 465 34,000 -60 Level New York Center
09:47AM 40.9008 -74.2219 230° Southwest 404 465 33,900 -600 Descending New York Center
09:48AM 40.8261 -74.3525 233° Southwest 404 465 32,800 -1,020 Descending New York Center
09:49AM 40.7497 -74.4664 228° Southwest 410 472 31,900 -1,080 Descending New York Center
09:50AM 40.6789 -74.5911 233° Southwest 422 486 30,800 -1,020 Descending New York Center
09:51AM 40.6150 -74.6969 232° Southwest 428 493 29,900 -1,020 Descending New York Center
09:52AM 40.5297 -74.8203 228° Southwest 428 493 28,800 -960 Descending New York Center
09:53AM 40.4597 -74.9172 227° Southwest 416 479 28,000 -1,080 Descending New York Center
09:54AM 40.3761 -75.0347 227° Southwest 405 466 26,700 -1,800 Descending New York Center
09:55AM 40.3014 -75.1389 227° Southwest 405 466 24,400 -2,220 Descending New York Center
09:56AM 40.2333 -75.2381 228° Southwest 392 451 22,300 -2,160 Descending New York Center
09:57AM 40.1672 -75.3261 226° Southwest 382 440 20,200 -1,680 Descending New York Center
09:58AM 40.0925 -75.4297 227° Southwest 371 427 19,000 -600 Descending New York Center
09:59AM 40.0328 -75.5125 227° Southwest 360 414 19,000  Level New York Center
10:00AM 39.9600 -75.6133 227° Southwest 360 414 19,000 -540 Level New York Center
10:01AM 39.8975 -75.7117 230° Southwest 355 409 18,000 -960 Descending New York Center
10:02AM 39.8475 -75.8056 235° Southwest 334 384 17,100 -1,380 Descending New York Center
10:04AM 39.7500 -75.9833 235° Southwest 312 359 14,100 -1,620 Descending Potomac TRACON
10:05AM 39.7167 -76.0667 243° Southwest 303 349 12,700 -1,260 Descending Potomac TRACON
10:06AM 39.6667 -76.1500 232° Southwest 270 311 11,600 -1,440 Descending Potomac TRACON
10:07AM 39.6167 -76.2333 232° Southwest 276 318 9,700 -1,800 Descending Potomac TRACON
10:08AM 39.5833 -76.3167 243° Southwest 271 312 8,200 -1,740 Descending Potomac TRACON
10:09AM 39.5500 -76.3833 237° Southwest 271 312 6,500 -1,620 Descending Potomac TRACON
10:10AM 39.5000 -76.4667 232° Southwest 270 311 5,000 -840 Descending Potomac TRACON
10:11AM 39.4500 -76.5167 218° Southwest 284 327 4,900 -480 Descending Potomac TRACON
10:12AM 39.3667 -76.4833 163° South 278 320 4,100 -480 Descending Potomac TRACON
10:13AM 39.3000 -76.4667 169° South 260 299 4,000 -60 Descending Potomac TRACON
10:14AM 39.2500 -76.4500 166° South 211 243 4,000  Level Potomac TRACON
10:15AM 39.1833 -76.4500 180° South 216 249 4,000 -780 Level Potomac TRACON
10:16AM 39.1333 -76.4667 194° South 205 236 2,600 -1,140 Descending Potomac TRACON
10:16AM 39.1000 -76.5000 218° Southwest 188 216 1,900 -360 Descending Potomac TRACON
10:17AM 39.0667 -76.5500 229° Southwest 182 209 2,000  Climbing Potomac TRACON
10:18AM 39.0833 -76.6000 293° West 167 192 1,900 -480 Descending Potomac TRACON
10:19AM 39.1167 -76.6167 339° North 144 166 1,200 -780 Descending Potomac TRACON
10:20AM 39.1500 -76.6500 322° Northwest 136 157 500 -720 Descending Potomac TRACON